sensor_id;sensor_type;location;lat;lon;timestamp;P1;durP1;ratioP1;P2;durP2;ratioP2
26774;SDS011;14362;51.902;7.626;2022-11-09T00:02:21;3.28;;;1.65;;
26774;SDS011;14362;51.902;7.626;2022-11-09T00:06:23;2.80;;;1.75;;
26774;SDS011;14362;51.902;7.626;2022-11-09T00:10:27;3.55;;;1.83;;
26774;SDS011;14362;51.902;7.626;2022-11-09T00:14:28;4.32;;;1.63;;
26774;SDS011;14362;51.902;7.626;2022-11-09T00:18:29;4.20;;;1.60;;
26774;SDS011;14362;51.902;7.626;2022-11-09T00:22:31;2.17;;;1.48;;
26774;SDS011;14362;51.902;7.626;2022-11-09T00:26:35;3.55;;;1.50;;
26774;SDS011;14362;51.902;7.626;2022-11-09T00:30:36;2.88;;;1.30;;
26774;SDS011;14362;51.902;7.626;2022-11-09T00:34:37;2.25;;;1.30;;
26774;SDS011;14362;51.902;7.626;2022-11-09T00:38:39;2.53;;;1.60;;
26774;SDS011;14362;51.902;7.626;2022-11-09T00:42:42;1.90;;;1.58;;
26774;SDS011;14362;51.902;7.626;2022-11-09T00:46:45;2.97;;;1.30;;
26774;SDS011;14362;51.902;7.626;2022-11-09T00:50:47;2.22;;;1.40;;
26774;SDS011;14362;51.902;7.626;2022-11-09T00:54:49;1.85;;;1.20;;
26774;SDS011;14362;51.902;7.626;2022-11-09T00:58:52;3.00;;;1.27;;
26774;SDS011;14362;51.902;7.626;2022-11-09T01:02:55;2.13;;;1.20;;
26774;SDS011;14362;51.902;7.626;2022-11-09T01:06:56;1.42;;;1.08;;
26774;SDS011;14362;51.902;7.626;2022-11-09T01:11:02;3.35;;;1.40;;
26774;SDS011;14362;51.902;7.626;2022-11-09T01:15:06;2.10;;;1.55;;
26774;SDS011;14362;51.902;7.626;2022-11-09T01:19:08;3.63;;;1.67;;
26774;SDS011;14362;51.902;7.626;2022-11-09T01:23:10;3.42;;;1.30;;
26774;SDS011;14362;51.902;7.626;2022-11-09T01:27:13;2.22;;;1.23;;
26774;SDS011;14362;51.902;7.626;2022-11-09T01:31:17;4.28;;;1.58;;
26774;SDS011;14362;51.902;7.626;2022-11-09T01:35:20;1.52;;;1.23;;
26774;SDS011;14362;51.902;7.626;2022-11-09T01:39:21;3.17;;;1.40;;
26774;SDS011;14362;51.902;7.626;2022-11-09T01:43:23;3.15;;;1.10;;
26774;SDS011;14362;51.902;7.626;2022-11-09T01:47:26;2.97;;;1.52;;
26774;SDS011;14362;51.902;7.626;2022-11-09T01:51:28;1.75;;;1.58;;
26774;SDS011;14362;51.902;7.626;2022-11-09T01:55:33;3.38;;;1.20;;
26774;SDS011;14362;51.902;7.626;2022-11-09T01:59:36;4.80;;;1.48;;
26774;SDS011;14362;51.902;7.626;2022-11-09T02:03:44;4.95;;;1.40;;
26774;SDS011;14362;51.902;7.626;2022-11-09T02:07:48;2.45;;;1.25;;
26774;SDS011;14362;51.902;7.626;2022-11-09T02:11:50;1.80;;;1.27;;
26774;SDS011;14362;51.902;7.626;2022-11-09T02:15:51;2.33;;;1.30;;
26774;SDS011;14362;51.902;7.626;2022-11-09T02:19:54;2.45;;;1.30;;
26774;SDS011;14362;51.902;7.626;2022-11-09T02:23:58;3.83;;;1.50;;
26774;SDS011;14362;51.902;7.626;2022-11-09T02:28:00;3.58;;;1.30;;
26774;SDS011;14362;51.902;7.626;2022-11-09T02:32:02;2.63;;;1.38;;
26774;SDS011;14362;51.902;7.626;2022-11-09T02:36:08;1.48;;;1.38;;
26774;SDS011;14362;51.902;7.626;2022-11-09T02:40:12;3.33;;;1.45;;
26774;SDS011;14362;51.902;7.626;2022-11-09T02:44:18;2.67;;;1.17;;
26774;SDS011;14362;51.902;7.626;2022-11-09T02:48:19;3.30;;;1.35;;
26774;SDS011;14362;51.902;7.626;2022-11-09T02:52:21;2.10;;;1.15;;
26774;SDS011;14362;51.902;7.626;2022-11-09T02:56:23;2.95;;;1.50;;
26774;SDS011;14362;51.902;7.626;2022-11-09T03:00:25;2.38;;;1.40;;
26774;SDS011;14362;51.902;7.626;2022-11-09T03:04:26;3.17;;;1.38;;
26774;SDS011;14362;51.902;7.626;2022-11-09T03:08:28;2.47;;;1.45;;
26774;SDS011;14362;51.902;7.626;2022-11-09T03:12:30;2.45;;;1.20;;
26774;SDS011;14362;51.902;7.626;2022-11-09T03:16:32;2.58;;;1.40;;
26774;SDS011;14362;51.902;7.626;2022-11-09T03:20:33;3.75;;;1.55;;
26774;SDS011;14362;51.902;7.626;2022-11-09T03:24:34;2.28;;;1.30;;
26774;SDS011;14362;51.902;7.626;2022-11-09T03:28:37;3.45;;;1.30;;
26774;SDS011;14362;51.902;7.626;2022-11-09T03:32:39;3.15;;;1.20;;
26774;SDS011;14362;51.902;7.626;2022-11-09T03:36:40;3.35;;;1.30;;
26774;SDS011;14362;51.902;7.626;2022-11-09T03:40:41;2.65;;;1.25;;
26774;SDS011;14362;51.902;7.626;2022-11-09T03:44:44;4.10;;;1.70;;
26774;SDS011;14362;51.902;7.626;2022-11-09T03:48:45;2.95;;;1.08;;
26774;SDS011;14362;51.902;7.626;2022-11-09T03:52:47;3.72;;;1.38;;
26774;SDS011;14362;51.902;7.626;2022-11-09T03:56:48;2.55;;;1.42;;
26774;SDS011;14362;51.902;7.626;2022-11-09T04:00:51;6.85;;;1.52;;
26774;SDS011;14362;51.902;7.626;2022-11-09T04:04:52;2.88;;;1.20;;
26774;SDS011;14362;51.902;7.626;2022-11-09T04:08:54;6.00;;;1.38;;
26774;SDS011;14362;51.902;7.626;2022-11-09T04:12:55;3.42;;;1.40;;
26774;SDS011;14362;51.902;7.626;2022-11-09T04:16:58;2.85;;;1.40;;
26774;SDS011;14362;51.902;7.626;2022-11-09T04:21:00;3.72;;;1.50;;
26774;SDS011;14362;51.902;7.626;2022-11-09T04:25:02;5.20;;;1.23;;
26774;SDS011;14362;51.902;7.626;2022-11-09T04:29:03;5.75;;;1.30;;
26774;SDS011;14362;51.902;7.626;2022-11-09T04:33:07;3.80;;;1.35;;
26774;SDS011;14362;51.902;7.626;2022-11-09T04:37:09;3.15;;;1.20;;
26774;SDS011;14362;51.902;7.626;2022-11-09T04:41:10;4.90;;;1.27;;
26774;SDS011;14362;51.902;7.626;2022-11-09T04:45:12;7.85;;;1.98;;
26774;SDS011;14362;51.902;7.626;2022-11-09T04:49:15;7.35;;;1.40;;
26774;SDS011;14362;51.902;7.626;2022-11-09T04:53:16;2.90;;;1.10;;
26774;SDS011;14362;51.902;7.626;2022-11-09T04:57:17;4.88;;;1.30;;
26774;SDS011;14362;51.902;7.626;2022-11-09T05:01:19;4.30;;;1.25;;
26774;SDS011;14362;51.902;7.626;2022-11-09T05:05:22;5.65;;;1.77;;
26774;SDS011;14362;51.902;7.626;2022-11-09T05:09:23;8.43;;;1.90;;
26774;SDS011;14362;51.902;7.626;2022-11-09T05:13:24;3.97;;;1.58;;
26774;SDS011;14362;51.902;7.626;2022-11-09T05:17:26;7.53;;;1.60;;
26774;SDS011;14362;51.902;7.626;2022-11-09T05:21:28;3.78;;;1.48;;
26774;SDS011;14362;51.902;7.626;2022-11-09T05:25:30;3.72;;;1.52;;
26774;SDS011;14362;51.902;7.626;2022-11-09T05:29:31;5.85;;;1.70;;
26774;SDS011;14362;51.902;7.626;2022-11-09T05:33:33;5.78;;;1.40;;
26774;SDS011;14362;51.902;7.626;2022-11-09T05:37:35;2.92;;;1.25;;
26774;SDS011;14362;51.902;7.626;2022-11-09T05:41:38;4.82;;;1.45;;
26774;SDS011;14362;51.902;7.626;2022-11-09T05:45:40;5.18;;;1.30;;
26774;SDS011;14362;51.902;7.626;2022-11-09T05:49:41;3.50;;;1.60;;
26774;SDS011;14362;51.902;7.626;2022-11-09T05:53:44;6.25;;;1.60;;
26774;SDS011;14362;51.902;7.626;2022-11-09T05:57:46;3.60;;;1.92;;
26774;SDS011;14362;51.902;7.626;2022-11-09T06:01:47;5.93;;;1.65;;
26774;SDS011;14362;51.902;7.626;2022-11-09T06:05:48;5.15;;;1.52;;
26774;SDS011;14362;51.902;7.626;2022-11-09T06:09:51;4.63;;;1.63;;
26774;SDS011;14362;51.902;7.626;2022-11-09T06:13:52;4.63;;;1.65;;
26774;SDS011;14362;51.902;7.626;2022-11-09T06:17:54;4.63;;;1.10;;
26774;SDS011;14362;51.902;7.626;2022-11-09T06:21:57;5.25;;;1.67;;
26774;SDS011;14362;51.902;7.626;2022-11-09T06:26:00;4.65;;;1.50;;
26774;SDS011;14362;51.902;7.626;2022-11-09T06:30:02;6.43;;;1.83;;
26774;SDS011;14362;51.902;7.626;2022-11-09T06:34:04;4.63;;;1.67;;
26774;SDS011;14362;51.902;7.626;2022-11-09T06:38:07;4.70;;;1.45;;
26774;SDS011;14362;51.902;7.626;2022-11-09T06:42:10;5.10;;;1.60;;
26774;SDS011;14362;51.902;7.626;2022-11-09T06:46:12;5.25;;;1.65;;
26774;SDS011;14362;51.902;7.626;2022-11-09T06:50:16;6.20;;;1.73;;
26774;SDS011;14362;51.902;7.626;2022-11-09T06:54:17;4.55;;;1.92;;
26774;SDS011;14362;51.902;7.626;2022-11-09T06:58:20;4.60;;;1.67;;
26774;SDS011;14362;51.902;7.626;2022-11-09T07:02:21;5.60;;;1.60;;
26774;SDS011;14362;51.902;7.626;2022-11-09T07:06:23;8.00;;;2.03;;
26774;SDS011;14362;51.902;7.626;2022-11-09T07:10:24;7.38;;;2.20;;
26774;SDS011;14362;51.902;7.626;2022-11-09T07:14:27;4.03;;;1.50;;
26774;SDS011;14362;51.902;7.626;2022-11-09T07:18:28;5.78;;;1.70;;
26774;SDS011;14362;51.902;7.626;2022-11-09T07:22:30;6.57;;;1.83;;
26774;SDS011;14362;51.902;7.626;2022-11-09T07:26:33;6.20;;;1.55;;
26774;SDS011;14362;51.902;7.626;2022-11-09T07:30:36;3.90;;;1.50;;
26774;SDS011;14362;51.902;7.626;2022-11-09T07:34:38;5.72;;;1.52;;
26774;SDS011;14362;51.902;7.626;2022-11-09T07:38:40;5.50;;;1.83;;
26774;SDS011;14362;51.902;7.626;2022-11-09T07:42:41;3.97;;;1.30;;
26774;SDS011;14362;51.902;7.626;2022-11-09T07:46:44;6.43;;;1.90;;
26774;SDS011;14362;51.902;7.626;2022-11-09T07:50:46;6.40;;;1.80;;
26774;SDS011;14362;51.902;7.626;2022-11-09T07:54:48;6.13;;;1.88;;
26774;SDS011;14362;51.902;7.626;2022-11-09T07:58:49;4.97;;;1.40;;
26774;SDS011;14362;51.902;7.626;2022-11-09T08:02:52;9.57;;;2.08;;
26774;SDS011;14362;51.902;7.626;2022-11-09T08:06:54;6.70;;;1.80;;
26774;SDS011;14362;51.902;7.626;2022-11-09T08:10:55;3.85;;;1.50;;
26774;SDS011;14362;51.902;7.626;2022-11-09T08:14:57;6.43;;;1.90;;
26774;SDS011;14362;51.902;7.626;2022-11-09T08:19:00;6.85;;;1.77;;
26774;SDS011;14362;51.902;7.626;2022-11-09T08:23:02;5.70;;;1.70;;
26774;SDS011;14362;51.902;7.626;2022-11-09T08:27:04;7.88;;;2.30;;
26774;SDS011;14362;51.902;7.626;2022-11-09T08:31:06;6.53;;;1.85;;
26774;SDS011;14362;51.902;7.626;2022-11-09T08:35:10;5.00;;;2.05;;
26774;SDS011;14362;51.902;7.626;2022-11-09T08:39:16;10.25;;;1.85;;
26774;SDS011;14362;51.902;7.626;2022-11-09T08:43:17;6.68;;;2.20;;
26774;SDS011;14362;51.902;7.626;2022-11-09T08:47:19;5.97;;;1.98;;
26774;SDS011;14362;51.902;7.626;2022-11-09T08:51:22;5.55;;;1.77;;
26774;SDS011;14362;51.902;7.626;2022-11-09T08:55:23;5.07;;;2.30;;
26774;SDS011;14362;51.902;7.626;2022-11-09T08:59:25;6.38;;;2.22;;
26774;SDS011;14362;51.902;7.626;2022-11-09T09:03:26;7.63;;;1.80;;
26774;SDS011;14362;51.902;7.626;2022-11-09T09:07:29;10.18;;;1.90;;
26774;SDS011;14362;51.902;7.626;2022-11-09T09:11:30;7.53;;;1.73;;
26774;SDS011;14362;51.902;7.626;2022-11-09T09:15:32;3.15;;;1.70;;
26774;SDS011;14362;51.902;7.626;2022-11-09T09:19:33;7.43;;;1.90;;
26774;SDS011;14362;51.902;7.626;2022-11-09T09:23:36;5.32;;;1.83;;
26774;SDS011;14362;51.902;7.626;2022-11-09T09:27:38;7.43;;;1.70;;
26774;SDS011;14362;51.902;7.626;2022-11-09T09:31:39;6.47;;;2.28;;
26774;SDS011;14362;51.902;7.626;2022-11-09T09:35:41;3.17;;;1.30;;
26774;SDS011;14362;51.902;7.626;2022-11-09T09:39:43;4.65;;;1.50;;
26774;SDS011;14362;51.902;7.626;2022-11-09T09:43:46;5.05;;;1.80;;
26774;SDS011;14362;51.902;7.626;2022-11-09T09:47:50;5.30;;;1.80;;
26774;SDS011;14362;51.902;7.626;2022-11-09T09:51:56;4.85;;;1.85;;
26774;SDS011;14362;51.902;7.626;2022-11-09T09:56:08;3.50;;;1.20;;
26774;SDS011;14362;51.902;7.626;2022-11-09T10:00:17;3.88;;;1.50;;
26774;SDS011;14362;51.902;7.626;2022-11-09T10:04:21;4.03;;;1.50;;
26774;SDS011;14362;51.902;7.626;2022-11-09T10:08:28;3.50;;;1.27;;
26774;SDS011;14362;51.902;7.626;2022-11-09T10:12:47;8.15;;;1.92;;
26774;SDS011;14362;51.902;7.626;2022-11-09T10:17:00;4.53;;;1.35;;
26774;SDS011;14362;51.902;7.626;2022-11-09T10:21:19;6.15;;;1.38;;
26774;SDS011;14362;51.902;7.626;2022-11-09T10:25:28;5.22;;;1.42;;
26774;SDS011;14362;51.902;7.626;2022-11-09T10:29:35;3.78;;;1.20;;
26774;SDS011;14362;51.902;7.626;2022-11-09T10:33:41;5.03;;;1.38;;
26774;SDS011;14362;51.902;7.626;2022-11-09T10:37:46;2.40;;;1.03;;
26774;SDS011;14362;51.902;7.626;2022-11-09T10:41:49;5.15;;;1.90;;
26774;SDS011;14362;51.902;7.626;2022-11-09T10:45:58;5.00;;;1.20;;
26774;SDS011;14362;51.902;7.626;2022-11-09T10:50:12;5.15;;;1.63;;
26774;SDS011;14362;51.902;7.626;2022-11-09T10:54:22;5.00;;;1.48;;
26774;SDS011;14362;51.902;7.626;2022-11-09T10:58:30;5.85;;;1.67;;
26774;SDS011;14362;51.902;7.626;2022-11-09T11:06:54;4.57;;;1.83;;
26774;SDS011;14362;51.902;7.626;2022-11-09T11:11:05;5.55;;;1.45;;
26774;SDS011;14362;51.902;7.626;2022-11-09T11:15:13;3.35;;;1.52;;
26774;SDS011;14362;51.902;7.626;2022-11-09T11:19:29;4.63;;;1.45;;
26774;SDS011;14362;51.902;7.626;2022-11-09T11:23:33;4.72;;;1.35;;
26774;SDS011;14362;51.902;7.626;2022-11-09T11:27:36;5.43;;;1.48;;
26774;SDS011;14362;51.902;7.626;2022-11-09T11:31:41;5.25;;;1.55;;
26774;SDS011;14362;51.902;7.626;2022-11-09T11:35:44;9.57;;;1.52;;
26774;SDS011;14362;51.902;7.626;2022-11-09T11:39:54;5.10;;;1.42;;
26774;SDS011;14362;51.902;7.626;2022-11-09T11:44:01;5.57;;;1.20;;
26774;SDS011;14362;51.902;7.626;2022-11-09T11:48:19;9.13;;;1.73;;
26774;SDS011;14362;51.902;7.626;2022-11-09T11:52:36;5.97;;;1.58;;
26774;SDS011;14362;51.902;7.626;2022-11-09T11:56:50;8.13;;;1.50;;
26774;SDS011;14362;51.902;7.626;2022-11-09T12:01:02;5.07;;;1.30;;
26774;SDS011;14362;51.902;7.626;2022-11-09T12:09:55;7.93;;;1.38;;
26774;SDS011;14362;51.902;7.626;2022-11-09T12:14:10;5.97;;;1.38;;
26774;SDS011;14362;51.902;7.626;2022-11-09T12:18:21;7.60;;;1.70;;
26774;SDS011;14362;51.902;7.626;2022-11-09T12:22:33;4.18;;;1.30;;
26774;SDS011;14362;51.902;7.626;2022-11-09T12:26:53;5.30;;;1.55;;
26774;SDS011;14362;51.902;7.626;2022-11-09T12:31:21;4.45;;;1.23;;
26774;SDS011;14362;51.902;7.626;2022-11-09T12:35:31;9.45;;;1.60;;
26774;SDS011;14362;51.902;7.626;2022-11-09T12:39:38;6.90;;;1.20;;
26774;SDS011;14362;51.902;7.626;2022-11-09T12:43:49;3.97;;;1.17;;
26774;SDS011;14362;51.902;7.626;2022-11-09T12:47:55;5.53;;;1.13;;
26774;SDS011;14362;51.902;7.626;2022-11-09T12:51:58;5.90;;;1.60;;
26774;SDS011;14362;51.902;7.626;2022-11-09T12:56:00;7.82;;;1.45;;
26774;SDS011;14362;51.902;7.626;2022-11-09T13:00:06;5.00;;;1.50;;
26774;SDS011;14362;51.902;7.626;2022-11-09T13:04:11;4.68;;;1.15;;
26774;SDS011;14362;51.902;7.626;2022-11-09T13:08:19;6.15;;;1.33;;
26774;SDS011;14362;51.902;7.626;2022-11-09T13:12:31;7.00;;;1.20;;
26774;SDS011;14362;51.902;7.626;2022-11-09T13:16:36;4.38;;;0.90;;
26774;SDS011;14362;51.902;7.626;2022-11-09T13:20:42;7.32;;;1.30;;
26774;SDS011;14362;51.902;7.626;2022-11-09T13:24:49;6.35;;;1.30;;
26774;SDS011;14362;51.902;7.626;2022-11-09T13:33:26;4.55;;;1.25;;
26774;SDS011;14362;51.902;7.626;2022-11-09T13:41:57;4.03;;;1.40;;
26774;SDS011;14362;51.902;7.626;2022-11-09T13:45:59;5.13;;;1.30;;
26774;SDS011;14362;51.902;7.626;2022-11-09T13:50:08;4.28;;;1.30;;
26774;SDS011;14362;51.902;7.626;2022-11-09T13:54:26;5.18;;;1.02;;
26774;SDS011;14362;51.902;7.626;2022-11-09T13:58:30;9.20;;;1.50;;
26774;SDS011;14362;51.902;7.626;2022-11-09T14:02:34;4.88;;;1.13;;
26774;SDS011;14362;51.902;7.626;2022-11-09T14:06:37;5.30;;;1.58;;
26774;SDS011;14362;51.902;7.626;2022-11-09T14:10:44;6.30;;;1.35;;
26774;SDS011;14362;51.902;7.626;2022-11-09T14:14:55;18.75;;;2.67;;
26774;SDS011;14362;51.902;7.626;2022-11-09T14:19:13;4.50;;;1.40;;
26774;SDS011;14362;51.902;7.626;2022-11-09T14:23:27;6.23;;;1.40;;
26774;SDS011;14362;51.902;7.626;2022-11-09T14:27:30;5.80;;;1.45;;
26774;SDS011;14362;51.902;7.626;2022-11-09T14:31:32;8.15;;;1.58;;
26774;SDS011;14362;51.902;7.626;2022-11-09T14:35:42;4.95;;;1.63;;
26774;SDS011;14362;51.902;7.626;2022-11-09T14:39:47;9.90;;;1.50;;
26774;SDS011;14362;51.902;7.626;2022-11-09T14:43:50;7.97;;;1.70;;
26774;SDS011;14362;51.902;7.626;2022-11-09T14:47:55;6.47;;;1.35;;
26774;SDS011;14362;51.902;7.626;2022-11-09T14:51:58;6.10;;;1.92;;
26774;SDS011;14362;51.902;7.626;2022-11-09T14:56:03;6.90;;;1.70;;
26774;SDS011;14362;51.902;7.626;2022-11-09T15:00:19;5.45;;;1.73;;
26774;SDS011;14362;51.902;7.626;2022-11-09T15:04:22;6.13;;;1.42;;
26774;SDS011;14362;51.902;7.626;2022-11-09T15:08:25;7.72;;;1.73;;
26774;SDS011;14362;51.902;7.626;2022-11-09T15:12:28;6.68;;;1.65;;
26774;SDS011;14362;51.902;7.626;2022-11-09T15:16:30;8.27;;;1.92;;
26774;SDS011;14362;51.902;7.626;2022-11-09T15:20:32;8.05;;;2.33;;
26774;SDS011;14362;51.902;7.626;2022-11-09T15:24:43;10.23;;;1.90;;
26774;SDS011;14362;51.902;7.626;2022-11-09T15:28:48;6.82;;;1.90;;
26774;SDS011;14362;51.902;7.626;2022-11-09T15:32:50;8.18;;;1.83;;
26774;SDS011;14362;51.902;7.626;2022-11-09T15:36:52;6.75;;;1.92;;
26774;SDS011;14362;51.902;7.626;2022-11-09T15:40:54;8.77;;;2.10;;
26774;SDS011;14362;51.902;7.626;2022-11-09T15:44:58;4.60;;;1.45;;
26774;SDS011;14362;51.902;7.626;2022-11-09T15:49:05;5.53;;;2.45;;
26774;SDS011;14362;51.902;7.626;2022-11-09T15:53:13;3.50;;;1.30;;
26774;SDS011;14362;51.902;7.626;2022-11-09T15:57:16;7.30;;;1.40;;
26774;SDS011;14362;51.902;7.626;2022-11-09T16:01:20;7.28;;;1.42;;
26774;SDS011;14362;51.902;7.626;2022-11-09T16:05:21;4.55;;;1.45;;
26774;SDS011;14362;51.902;7.626;2022-11-09T16:09:26;4.93;;;1.60;;
26774;SDS011;14362;51.902;7.626;2022-11-09T16:13:28;5.97;;;1.50;;
26774;SDS011;14362;51.902;7.626;2022-11-09T16:17:30;6.78;;;1.73;;
26774;SDS011;14362;51.902;7.626;2022-11-09T16:21:32;6.22;;;1.52;;
26774;SDS011;14362;51.902;7.626;2022-11-09T16:25:33;10.02;;;2.13;;
26774;SDS011;14362;51.902;7.626;2022-11-09T16:29:35;4.82;;;1.60;;
26774;SDS011;14362;51.902;7.626;2022-11-09T16:33:38;5.13;;;1.70;;
26774;SDS011;14362;51.902;7.626;2022-11-09T16:37:40;10.05;;;2.20;;
26774;SDS011;14362;51.902;7.626;2022-11-09T16:41:42;4.38;;;1.77;;
26774;SDS011;14362;51.902;7.626;2022-11-09T16:45:47;4.07;;;1.60;;
26774;SDS011;14362;51.902;7.626;2022-11-09T16:49:51;6.25;;;1.50;;
26774;SDS011;14362;51.902;7.626;2022-11-09T16:53:52;8.32;;;2.28;;
26774;SDS011;14362;51.902;7.626;2022-11-09T16:57:54;5.75;;;1.90;;
26774;SDS011;14362;51.902;7.626;2022-11-09T17:01:56;6.35;;;2.05;;
26774;SDS011;14362;51.902;7.626;2022-11-09T17:06:00;5.88;;;1.60;;
26774;SDS011;14362;51.902;7.626;2022-11-09T17:10:01;7.75;;;1.77;;
26774;SDS011;14362;51.902;7.626;2022-11-09T17:14:03;7.50;;;2.30;;
26774;SDS011;14362;51.902;7.626;2022-11-09T17:18:05;6.65;;;1.80;;
26774;SDS011;14362;51.902;7.626;2022-11-09T17:22:10;4.82;;;1.52;;
26774;SDS011;14362;51.902;7.626;2022-11-09T17:26:12;4.70;;;1.90;;
26774;SDS011;14362;51.902;7.626;2022-11-09T17:30:13;4.70;;;1.60;;
26774;SDS011;14362;51.902;7.626;2022-11-09T17:34:15;6.82;;;1.67;;
26774;SDS011;14362;51.902;7.626;2022-11-09T17:38:17;6.32;;;1.90;;
26774;SDS011;14362;51.902;7.626;2022-11-09T17:42:19;5.10;;;1.60;;
26774;SDS011;14362;51.902;7.626;2022-11-09T17:46:20;6.85;;;1.80;;
26774;SDS011;14362;51.902;7.626;2022-11-09T17:50:22;8.70;;;1.90;;
26774;SDS011;14362;51.902;7.626;2022-11-09T17:54:25;8.85;;;1.90;;
26774;SDS011;14362;51.902;7.626;2022-11-09T17:58:28;6.65;;;2.10;;
26774;SDS011;14362;51.902;7.626;2022-11-09T18:02:30;8.70;;;2.00;;
26774;SDS011;14362;51.902;7.626;2022-11-09T18:06:33;6.22;;;2.17;;
26774;SDS011;14362;51.902;7.626;2022-11-09T18:10:36;5.65;;;1.98;;
26774;SDS011;14362;51.902;7.626;2022-11-09T18:14:38;7.20;;;2.10;;
26774;SDS011;14362;51.902;7.626;2022-11-09T18:18:40;10.45;;;2.67;;
26774;SDS011;14362;51.902;7.626;2022-11-09T18:22:42;5.65;;;2.00;;
26774;SDS011;14362;51.902;7.626;2022-11-09T18:26:44;9.40;;;2.28;;
26774;SDS011;14362;51.902;7.626;2022-11-09T18:30:46;8.80;;;1.85;;
26774;SDS011;14362;51.902;7.626;2022-11-09T18:34:47;6.45;;;2.08;;
26774;SDS011;14362;51.902;7.626;2022-11-09T18:38:49;6.97;;;2.15;;
26774;SDS011;14362;51.902;7.626;2022-11-09T18:42:52;6.80;;;2.40;;
26774;SDS011;14362;51.902;7.626;2022-11-09T18:46:53;8.82;;;2.33;;
26774;SDS011;14362;51.902;7.626;2022-11-09T18:50:55;5.28;;;2.10;;
26774;SDS011;14362;51.902;7.626;2022-11-09T18:54:58;9.88;;;2.78;;
26774;SDS011;14362;51.902;7.626;2022-11-09T18:59:00;7.88;;;3.15;;
26774;SDS011;14362;51.902;7.626;2022-11-09T19:03:02;6.45;;;2.38;;
26774;SDS011;14362;51.902;7.626;2022-11-09T19:07:04;7.95;;;2.70;;
26774;SDS011;14362;51.902;7.626;2022-11-09T19:11:05;6.78;;;1.95;;
26774;SDS011;14362;51.902;7.626;2022-11-09T19:15:11;5.38;;;2.10;;
26774;SDS011;14362;51.902;7.626;2022-11-09T19:19:13;8.77;;;2.22;;
26774;SDS011;14362;51.902;7.626;2022-11-09T19:23:15;6.70;;;2.40;;
26774;SDS011;14362;51.902;7.626;2022-11-09T19:27:16;8.43;;;2.35;;
26774;SDS011;14362;51.902;7.626;2022-11-09T19:31:20;5.93;;;2.40;;
26774;SDS011;14362;51.902;7.626;2022-11-09T19:35:22;7.13;;;2.15;;
26774;SDS011;14362;51.902;7.626;2022-11-09T19:39:24;6.20;;;1.98;;
26774;SDS011;14362;51.902;7.626;2022-11-09T19:43:25;7.03;;;2.28;;
26774;SDS011;14362;51.902;7.626;2022-11-09T19:47:28;8.18;;;2.13;;
26774;SDS011;14362;51.902;7.626;2022-11-09T19:51:29;11.07;;;3.08;;
26774;SDS011;14362;51.902;7.626;2022-11-09T19:55:31;5.95;;;1.75;;
26774;SDS011;14362;51.902;7.626;2022-11-09T19:59:32;7.63;;;1.95;;
26774;SDS011;14362;51.902;7.626;2022-11-09T20:03:36;9.13;;;2.35;;
26774;SDS011;14362;51.902;7.626;2022-11-09T20:07:37;5.55;;;2.25;;
26774;SDS011;14362;51.902;7.626;2022-11-09T20:11:39;7.10;;;1.85;;
26774;SDS011;14362;51.902;7.626;2022-11-09T20:16:01;8.45;;;2.17;;
26774;SDS011;14362;51.902;7.626;2022-11-09T20:20:05;6.15;;;2.20;;
26774;SDS011;14362;51.902;7.626;2022-11-09T20:28:11;7.95;;;2.20;;
26774;SDS011;14362;51.902;7.626;2022-11-09T20:32:12;10.68;;;2.50;;
26774;SDS011;14362;51.902;7.626;2022-11-09T20:36:15;7.95;;;2.65;;
26774;SDS011;14362;51.902;7.626;2022-11-09T20:40:17;5.40;;;1.75;;
26774;SDS011;14362;51.902;7.626;2022-11-09T20:44:19;10.63;;;2.33;;
26774;SDS011;14362;51.902;7.626;2022-11-09T20:48:20;4.70;;;1.83;;
26774;SDS011;14362;51.902;7.626;2022-11-09T20:52:24;7.68;;;2.05;;
26774;SDS011;14362;51.902;7.626;2022-11-09T20:56:25;9.70;;;2.50;;
26774;SDS011;14362;51.902;7.626;2022-11-09T21:00:27;8.30;;;3.10;;
26774;SDS011;14362;51.902;7.626;2022-11-09T21:04:28;9.68;;;2.20;;
26774;SDS011;14362;51.902;7.626;2022-11-09T21:08:32;7.18;;;2.45;;
26774;SDS011;14362;51.902;7.626;2022-11-09T21:12:33;6.35;;;2.33;;
26774;SDS011;14362;51.902;7.626;2022-11-09T21:16:34;7.65;;;2.35;;
26774;SDS011;14362;51.902;7.626;2022-11-09T21:20:36;5.93;;;2.20;;
26774;SDS011;14362;51.902;7.626;2022-11-09T21:24:39;9.02;;;2.58;;
26774;SDS011;14362;51.902;7.626;2022-11-09T21:28:58;7.63;;;1.83;;
26774;SDS011;14362;51.902;7.626;2022-11-09T21:33:16;7.10;;;2.10;;
26774;SDS011;14362;51.902;7.626;2022-11-09T21:37:18;6.25;;;2.20;;
26774;SDS011;14362;51.902;7.626;2022-11-09T21:41:21;5.35;;;2.15;;
26774;SDS011;14362;51.902;7.626;2022-11-09T21:45:37;10.95;;;2.20;;
26774;SDS011;14362;51.902;7.626;2022-11-09T21:49:38;6.90;;;2.35;;
26774;SDS011;14362;51.902;7.626;2022-11-09T21:53:40;7.15;;;2.67;;
26774;SDS011;14362;51.902;7.626;2022-11-09T21:57:43;10.10;;;2.30;;
26774;SDS011;14362;51.902;7.626;2022-11-09T22:01:44;6.55;;;2.72;;
26774;SDS011;14362;51.902;7.626;2022-11-09T22:05:47;8.77;;;2.72;;
26774;SDS011;14362;51.902;7.626;2022-11-09T22:09:48;7.82;;;2.15;;
26774;SDS011;14362;51.902;7.626;2022-11-09T22:13:53;9.95;;;2.67;;
26774;SDS011;14362;51.902;7.626;2022-11-09T22:18:21;9.43;;;2.70;;
26774;SDS011;14362;51.902;7.626;2022-11-09T22:22:40;7.57;;;2.42;;
26774;SDS011;14362;51.902;7.626;2022-11-09T22:26:41;6.25;;;2.30;;
26774;SDS011;14362;51.902;7.626;2022-11-09T22:30:44;10.15;;;3.05;;
26774;SDS011;14362;51.902;7.626;2022-11-09T22:34:46;8.50;;;2.30;;
26774;SDS011;14362;51.902;7.626;2022-11-09T22:38:47;7.15;;;2.78;;
26774;SDS011;14362;51.902;7.626;2022-11-09T22:42:53;5.97;;;1.88;;
26774;SDS011;14362;51.902;7.626;2022-11-09T22:46:56;8.68;;;2.13;;
26774;SDS011;14362;51.902;7.626;2022-11-09T22:50:58;9.68;;;2.92;;
26774;SDS011;14362;51.902;7.626;2022-11-09T22:54:59;12.32;;;3.97;;
26774;SDS011;14362;51.902;7.626;2022-11-09T22:59:00;7.72;;;2.60;;
26774;SDS011;14362;51.902;7.626;2022-11-09T23:03:03;8.13;;;2.72;;
26774;SDS011;14362;51.902;7.626;2022-11-09T23:07:05;11.35;;;2.58;;
26774;SDS011;14362;51.902;7.626;2022-11-09T23:11:07;10.70;;;3.03;;
26774;SDS011;14362;51.902;7.626;2022-11-09T23:15:10;9.02;;;2.95;;
26774;SDS011;14362;51.902;7.626;2022-11-09T23:19:13;10.32;;;3.47;;
26774;SDS011;14362;51.902;7.626;2022-11-09T23:23:15;8.43;;;2.50;;
26774;SDS011;14362;51.902;7.626;2022-11-09T23:27:16;8.52;;;2.63;;
26774;SDS011;14362;51.902;7.626;2022-11-09T23:31:18;9.27;;;2.60;;
26774;SDS011;14362;51.902;7.626;2022-11-09T23:35:24;5.82;;;2.38;;
26774;SDS011;14362;51.902;7.626;2022-11-09T23:39:25;12.18;;;3.00;;
26774;SDS011;14362;51.902;7.626;2022-11-09T23:43:27;10.20;;;2.88;;
26774;SDS011;14362;51.902;7.626;2022-11-09T23:47:28;11.50;;;2.88;;
26774;SDS011;14362;51.902;7.626;2022-11-09T23:51:31;13.82;;;2.67;;
26774;SDS011;14362;51.902;7.626;2022-11-09T23:55:32;11.75;;;2.83;;
26774;SDS011;14362;51.902;7.626;2022-11-09T23:59:34;8.35;;;3.05;;
